sensor_id;sensor_type;location;lat;lon;timestamp;temperature;humidity
47576;DHT22;33304;52.456;13.328;2023-08-20T00:00:03;25.10;20.00
47576;DHT22;33304;52.456;13.328;2023-08-20T00:02:41;24.90;20.00
47576;DHT22;33304;52.456;13.328;2023-08-20T00:05:10;25.00;19.90
47576;DHT22;33304;52.456;13.328;2023-08-20T00:07:37;25.00;20.00
47576;DHT22;33304;52.456;13.328;2023-08-20T00:10:07;25.00;20.20
47576;DHT22;33304;52.456;13.328;2023-08-20T00:12:35;25.00;20.30
47576;DHT22;33304;52.456;13.328;2023-08-20T00:15:04;24.90;20.20
47576;DHT22;33304;52.456;13.328;2023-08-20T00:17:32;24.90;19.30
47576;DHT22;33304;52.456;13.328;2023-08-20T00:20:00;24.80;20.00
47576;DHT22;33304;52.456;13.328;2023-08-20T00:22:31;24.80;20.30
47576;DHT22;33304;52.456;13.328;2023-08-20T00:24:58;24.90;20.10
47576;DHT22;33304;52.456;13.328;2023-08-20T00:27:27;24.80;20.70
47576;DHT22;33304;52.456;13.328;2023-08-20T00:29:54;24.70;20.60
47576;DHT22;33304;52.456;13.328;2023-08-20T00:32:21;24.70;20.60
47576;DHT22;33304;52.456;13.328;2023-08-20T00:34:48;24.70;21.00
47576;DHT22;33304;52.456;13.328;2023-08-20T00:37:16;24.70;20.90
47576;DHT22;33304;52.456;13.328;2023-08-20T00:39:43;24.70;21.10
47576;DHT22;33304;52.456;13.328;2023-08-20T00:42:10;24.70;21.00
47576;DHT22;33304;52.456;13.328;2023-08-20T00:44:40;24.60;21.20
47576;DHT22;33304;52.456;13.328;2023-08-20T00:47:11;24.60;21.10
47576;DHT22;33304;52.456;13.328;2023-08-20T00:49:39;24.70;21.20
47576;DHT22;33304;52.456;13.328;2023-08-20T00:52:08;24.70;21.40
47576;DHT22;33304;52.456;13.328;2023-08-20T00:54:36;24.70;21.10
47576;DHT22;33304;52.456;13.328;2023-08-20T00:57:06;24.70;21.90
47576;DHT22;33304;52.456;13.328;2023-08-20T00:59:34;24.60;22.60
47576;DHT22;33304;52.456;13.328;2023-08-20T01:02:03;24.60;22.60
47576;DHT22;33304;52.456;13.328;2023-08-20T01:04:32;24.60;23.20
47576;DHT22;33304;52.456;13.328;2023-08-20T01:07:04;24.60;22.60
47576;DHT22;33304;52.456;13.328;2023-08-20T01:09:43;24.60;22.60
47576;DHT22;33304;52.456;13.328;2023-08-20T01:12:16;24.50;23.70
47576;DHT22;33304;52.456;13.328;2023-08-20T01:14:44;24.50;24.20
47576;DHT22;33304;52.456;13.328;2023-08-20T01:17:13;24.50;24.50
47576;DHT22;33304;52.456;13.328;2023-08-20T01:19:41;24.50;25.00
47576;DHT22;33304;52.456;13.328;2023-08-20T01:22:28;24.40;25.90
47576;DHT22;33304;52.456;13.328;2023-08-20T01:25:11;24.30;26.70
47576;DHT22;33304;52.456;13.328;2023-08-20T01:27:51;24.30;26.80
47576;DHT22;33304;52.456;13.328;2023-08-20T01:30:21;24.20;27.50
47576;DHT22;33304;52.456;13.328;2023-08-20T01:32:53;24.30;28.00
47576;DHT22;33304;52.456;13.328;2023-08-20T01:35:24;24.30;28.00
47576;DHT22;33304;52.456;13.328;2023-08-20T01:38:02;24.30;28.40
47576;DHT22;33304;52.456;13.328;2023-08-20T01:40:29;24.20;28.80
47576;DHT22;33304;52.456;13.328;2023-08-20T01:42:57;24.20;28.90
47576;DHT22;33304;52.456;13.328;2023-08-20T01:45:25;24.30;28.90
47576;DHT22;33304;52.456;13.328;2023-08-20T01:47:53;24.20;28.80
47576;DHT22;33304;52.456;13.328;2023-08-20T01:50:20;24.20;29.10
47576;DHT22;33304;52.456;13.328;2023-08-20T01:52:47;24.20;29.40
47576;DHT22;33304;52.456;13.328;2023-08-20T01:55:15;24.10;29.50
47576;DHT22;33304;52.456;13.328;2023-08-20T01:57:42;24.20;29.70
47576;DHT22;33304;52.456;13.328;2023-08-20T02:00:10;24.10;29.60
47576;DHT22;33304;52.456;13.328;2023-08-20T02:02:42;24.10;30.00
47576;DHT22;33304;52.456;13.328;2023-08-20T02:05:09;24.00;30.00
47576;DHT22;33304;52.456;13.328;2023-08-20T02:07:38;24.00;30.20
47576;DHT22;33304;52.456;13.328;2023-08-20T02:10:06;24.00;30.60
47576;DHT22;33304;52.456;13.328;2023-08-20T02:12:34;23.90;30.70
47576;DHT22;33304;52.456;13.328;2023-08-20T02:15:01;23.90;31.20
47576;DHT22;33304;52.456;13.328;2023-08-20T02:17:29;23.80;31.30
47576;DHT22;33304;52.456;13.328;2023-08-20T02:19:57;23.90;32.10
47576;DHT22;33304;52.456;13.328;2023-08-20T02:22:25;23.90;32.10
47576;DHT22;33304;52.456;13.328;2023-08-20T02:24:53;23.80;32.10
47576;DHT22;33304;52.456;13.328;2023-08-20T02:27:20;23.80;32.10
47576;DHT22;33304;52.456;13.328;2023-08-20T02:29:48;23.70;32.00
47576;DHT22;33304;52.456;13.328;2023-08-20T02:32:15;23.70;32.00
47576;DHT22;33304;52.456;13.328;2023-08-20T02:34:43;23.60;33.00
47576;DHT22;33304;52.456;13.328;2023-08-20T02:37:12;23.50;33.80
47576;DHT22;33304;52.456;13.328;2023-08-20T02:39:39;23.50;34.20
47576;DHT22;33304;52.456;13.328;2023-08-20T02:42:08;23.50;34.30
47576;DHT22;33304;52.456;13.328;2023-08-20T02:44:35;23.50;34.50
47576;DHT22;33304;52.456;13.328;2023-08-20T02:47:03;23.50;34.90
47576;DHT22;33304;52.456;13.328;2023-08-20T02:49:30;23.50;34.80
47576;DHT22;33304;52.456;13.328;2023-08-20T02:51:57;23.40;35.20
47576;DHT22;33304;52.456;13.328;2023-08-20T02:54:25;23.40;35.40
47576;DHT22;33304;52.456;13.328;2023-08-20T02:56:52;23.50;35.70
47576;DHT22;33304;52.456;13.328;2023-08-20T02:59:20;23.50;35.80
47576;DHT22;33304;52.456;13.328;2023-08-20T03:01:47;23.40;36.30
47576;DHT22;33304;52.456;13.328;2023-08-20T03:04:14;23.30;37.00
47576;DHT22;33304;52.456;13.328;2023-08-20T03:06:41;23.30;37.60
47576;DHT22;33304;52.456;13.328;2023-08-20T03:09:09;23.30;37.70
47576;DHT22;33304;52.456;13.328;2023-08-20T03:11:38;23.30;37.80
47576;DHT22;33304;52.456;13.328;2023-08-20T03:14:05;23.30;38.00
47576;DHT22;33304;52.456;13.328;2023-08-20T03:16:32;23.20;38.70
47576;DHT22;33304;52.456;13.328;2023-08-20T03:18:59;23.20;39.40
47576;DHT22;33304;52.456;13.328;2023-08-20T03:21:27;23.20;40.00
47576;DHT22;33304;52.456;13.328;2023-08-20T03:23:54;23.10;40.60
47576;DHT22;33304;52.456;13.328;2023-08-20T03:26:21;23.10;41.90
47576;DHT22;33304;52.456;13.328;2023-08-20T03:28:50;23.00;43.40
47576;DHT22;33304;52.456;13.328;2023-08-20T03:31:17;23.00;43.40
47576;DHT22;33304;52.456;13.328;2023-08-20T03:33:46;22.90;44.80
47576;DHT22;33304;52.456;13.328;2023-08-20T03:36:15;22.90;45.30
47576;DHT22;33304;52.456;13.328;2023-08-20T03:38:42;22.90;46.70
47576;DHT22;33304;52.456;13.328;2023-08-20T03:41:09;22.90;46.70
47576;DHT22;33304;52.456;13.328;2023-08-20T03:43:36;22.90;46.30
47576;DHT22;33304;52.456;13.328;2023-08-20T03:46:04;23.00;46.50
47576;DHT22;33304;52.456;13.328;2023-08-20T03:48:31;22.80;47.10
47576;DHT22;33304;52.456;13.328;2023-08-20T03:50:58;22.80;48.30
47576;DHT22;33304;52.456;13.328;2023-08-20T03:53:25;22.70;50.50
47576;DHT22;33304;52.456;13.328;2023-08-20T03:55:53;22.80;51.20
47576;DHT22;33304;52.456;13.328;2023-08-20T03:58:20;22.80;52.50
47576;DHT22;33304;52.456;13.328;2023-08-20T04:00:47;22.70;52.70
47576;DHT22;33304;52.456;13.328;2023-08-20T04:03:15;22.80;53.30
47576;DHT22;33304;52.456;13.328;2023-08-20T04:05:45;22.70;53.00
47576;DHT22;33304;52.456;13.328;2023-08-20T04:08:14;22.80;52.90
47576;DHT22;33304;52.456;13.328;2023-08-20T04:10:45;22.70;54.40
47576;DHT22;33304;52.456;13.328;2023-08-20T04:13:12;22.60;54.60
47576;DHT22;33304;52.456;13.328;2023-08-20T04:15:41;22.60;56.80
47576;DHT22;33304;52.456;13.328;2023-08-20T04:18:09;22.60;57.90
47576;DHT22;33304;52.456;13.328;2023-08-20T04:20:38;22.60;59.20
47576;DHT22;33304;52.456;13.328;2023-08-20T04:23:05;22.60;61.20
47576;DHT22;33304;52.456;13.328;2023-08-20T04:25:32;22.60;61.50
47576;DHT22;33304;52.456;13.328;2023-08-20T04:28:00;22.60;63.80
47576;DHT22;33304;52.456;13.328;2023-08-20T04:30:27;22.70;63.10
47576;DHT22;33304;52.456;13.328;2023-08-20T04:32:54;22.60;63.00
47576;DHT22;33304;52.456;13.328;2023-08-20T04:35:22;22.70;65.30
47576;DHT22;33304;52.456;13.328;2023-08-20T04:37:51;22.60;66.00
47576;DHT22;33304;52.456;13.328;2023-08-20T04:40:19;22.60;70.20
47576;DHT22;33304;52.456;13.328;2023-08-20T04:42:46;22.50;72.30
47576;DHT22;33304;52.456;13.328;2023-08-20T04:45:14;22.40;82.10
47576;DHT22;33304;52.456;13.328;2023-08-20T04:47:44;22.50;83.30
47576;DHT22;33304;52.456;13.328;2023-08-20T04:50:12;22.40;84.00
47576;DHT22;33304;52.456;13.328;2023-08-20T04:52:40;22.40;88.60
47576;DHT22;33304;52.456;13.328;2023-08-20T04:55:09;22.40;89.60
47576;DHT22;33304;52.456;13.328;2023-08-20T04:57:37;22.50;88.70
47576;DHT22;33304;52.456;13.328;2023-08-20T05:00:06;22.50;87.70
47576;DHT22;33304;52.456;13.328;2023-08-20T05:02:44;22.60;85.80
47576;DHT22;33304;52.456;13.328;2023-08-20T05:05:14;22.60;84.50
47576;DHT22;33304;52.456;13.328;2023-08-20T05:07:42;22.60;85.70
47576;DHT22;33304;52.456;13.328;2023-08-20T05:10:10;22.50;85.70
47576;DHT22;33304;52.456;13.328;2023-08-20T05:12:37;22.50;86.00
47576;DHT22;33304;52.456;13.328;2023-08-20T05:15:05;22.60;84.70
47576;DHT22;33304;52.456;13.328;2023-08-20T05:17:32;22.80;79.40
47576;DHT22;33304;52.456;13.328;2023-08-20T05:20:00;22.80;77.30
47576;DHT22;33304;52.456;13.328;2023-08-20T05:22:27;22.80;77.30
47576;DHT22;33304;52.456;13.328;2023-08-20T05:24:54;22.70;76.70
47576;DHT22;33304;52.456;13.328;2023-08-20T05:27:23;22.70;81.20
47576;DHT22;33304;52.456;13.328;2023-08-20T05:29:51;22.80;77.30
47576;DHT22;33304;52.456;13.328;2023-08-20T05:32:19;22.90;77.40
47576;DHT22;33304;52.456;13.328;2023-08-20T05:34:47;22.90;74.50
47576;DHT22;33304;52.456;13.328;2023-08-20T05:37:14;22.90;71.90
47576;DHT22;33304;52.456;13.328;2023-08-20T05:39:42;23.00;71.20
47576;DHT22;33304;52.456;13.328;2023-08-20T05:42:10;23.00;68.10
47576;DHT22;33304;52.456;13.328;2023-08-20T05:44:40;23.00;67.40
47576;DHT22;33304;52.456;13.328;2023-08-20T05:47:11;22.80;66.20
47576;DHT22;33304;52.456;13.328;2023-08-20T05:49:38;22.80;69.00
47576;DHT22;33304;52.456;13.328;2023-08-20T05:52:19;23.00;67.80
47576;DHT22;33304;52.456;13.328;2023-08-20T05:54:47;23.10;66.50
47576;DHT22;33304;52.456;13.328;2023-08-20T05:57:14;23.20;58.80
47576;DHT22;33304;52.456;13.328;2023-08-20T05:59:43;23.30;55.30
47576;DHT22;33304;52.456;13.328;2023-08-20T06:02:15;23.40;53.80
47576;DHT22;33304;52.456;13.328;2023-08-20T06:04:43;23.40;49.30
47576;DHT22;33304;52.456;13.328;2023-08-20T06:07:10;23.30;47.50
47576;DHT22;33304;52.456;13.328;2023-08-20T06:09:37;23.20;49.50
47576;DHT22;33304;52.456;13.328;2023-08-20T06:12:05;23.20;48.80
47576;DHT22;33304;52.456;13.328;2023-08-20T06:14:32;23.30;48.30
47576;DHT22;33304;52.456;13.328;2023-08-20T06:17:01;23.30;47.80
47576;DHT22;33304;52.456;13.328;2023-08-20T06:19:28;23.30;46.60
47576;DHT22;33304;52.456;13.328;2023-08-20T06:21:56;23.40;46.40
47576;DHT22;33304;52.456;13.328;2023-08-20T06:24:23;23.30;43.70
47576;DHT22;33304;52.456;13.328;2023-08-20T06:26:51;23.20;45.20
47576;DHT22;33304;52.456;13.328;2023-08-20T06:29:18;23.10;45.00
47576;DHT22;33304;52.456;13.328;2023-08-20T06:31:47;23.10;47.50
47576;DHT22;33304;52.456;13.328;2023-08-20T06:34:16;23.10;47.00
47576;DHT22;33304;52.456;13.328;2023-08-20T06:36:43;23.00;45.60
47576;DHT22;33304;52.456;13.328;2023-08-20T06:39:10;23.00;46.40
47576;DHT22;33304;52.456;13.328;2023-08-20T06:41:37;23.10;46.50
47576;DHT22;33304;52.456;13.328;2023-08-20T06:44:13;23.10;46.70
47576;DHT22;33304;52.456;13.328;2023-08-20T06:46:40;23.00;44.80
47576;DHT22;33304;52.456;13.328;2023-08-20T06:49:07;23.20;44.50
47576;DHT22;33304;52.456;13.328;2023-08-20T06:51:36;23.30;43.70
47576;DHT22;33304;52.456;13.328;2023-08-20T06:54:04;23.30;43.70
47576;DHT22;33304;52.456;13.328;2023-08-20T06:56:32;23.20;43.60
47576;DHT22;33304;52.456;13.328;2023-08-20T06:59:00;23.30;43.70
47576;DHT22;33304;52.456;13.328;2023-08-20T07:01:27;23.30;43.70
47576;DHT22;33304;52.456;13.328;2023-08-20T07:03:54;23.40;42.20
47576;DHT22;33304;52.456;13.328;2023-08-20T07:06:22;23.30;41.40
47576;DHT22;33304;52.456;13.328;2023-08-20T07:08:51;23.00;42.50
47576;DHT22;33304;52.456;13.328;2023-08-20T07:11:18;23.00;43.40
47576;DHT22;33304;52.456;13.328;2023-08-20T07:13:45;22.80;44.30
47576;DHT22;33304;52.456;13.328;2023-08-20T07:16:12;22.70;44.40
47576;DHT22;33304;52.456;13.328;2023-08-20T07:18:39;22.80;44.50
47576;DHT22;33304;52.456;13.328;2023-08-20T07:21:06;22.90;45.10
47576;DHT22;33304;52.456;13.328;2023-08-20T07:23:34;22.90;43.30
47576;DHT22;33304;52.456;13.328;2023-08-20T07:26:07;23.20;43.60
47576;DHT22;33304;52.456;13.328;2023-08-20T07:28:35;23.30;43.70
47576;DHT22;33304;52.456;13.328;2023-08-20T07:31:20;23.40;42.20
47576;DHT22;33304;52.456;13.328;2023-08-20T07:33:47;23.40;37.70
47576;DHT22;33304;52.456;13.328;2023-08-20T07:36:15;23.50;37.90
47576;DHT22;33304;52.456;13.328;2023-08-20T07:38:43;23.50;37.90
47576;DHT22;33304;52.456;13.328;2023-08-20T07:41:11;23.50;36.70
47576;DHT22;33304;52.456;13.328;2023-08-20T07:43:40;23.60;34.60
47576;DHT22;33304;52.456;13.328;2023-08-20T07:46:08;23.50;31.80
47576;DHT22;33304;52.456;13.328;2023-08-20T07:48:35;23.60;32.30
47576;DHT22;33304;52.456;13.328;2023-08-20T07:51:03;23.70;32.00
47576;DHT22;33304;52.456;13.328;2023-08-20T07:53:31;23.80;32.10
47576;DHT22;33304;52.456;13.328;2023-08-20T07:55:59;23.90;29.70
47576;DHT22;33304;52.456;13.328;2023-08-20T07:58:28;24.00;29.70
47576;DHT22;33304;52.456;13.328;2023-08-20T08:00:55;24.00;28.00
47576;DHT22;33304;52.456;13.328;2023-08-20T08:03:24;24.00;27.70
47576;DHT22;33304;52.456;13.328;2023-08-20T08:05:52;24.10;27.10
47576;DHT22;33304;52.456;13.328;2023-08-20T08:08:20;24.10;25.90
47576;DHT22;33304;52.456;13.328;2023-08-20T08:10:48;24.20;26.40
47576;DHT22;33304;52.456;13.328;2023-08-20T08:13:17;24.30;26.10
47576;DHT22;33304;52.456;13.328;2023-08-20T08:15:46;24.50;24.70
47576;DHT22;33304;52.456;13.328;2023-08-20T08:18:13;24.50;23.90
47576;DHT22;33304;52.456;13.328;2023-08-20T08:20:41;24.50;22.50
47576;DHT22;33304;52.456;13.328;2023-08-20T08:23:08;24.50;23.50
47576;DHT22;33304;52.456;13.328;2023-08-20T08:25:35;24.40;22.50
47576;DHT22;33304;52.456;13.328;2023-08-20T08:28:03;24.50;22.50
47576;DHT22;33304;52.456;13.328;2023-08-20T08:30:30;24.60;22.60
47576;DHT22;33304;52.456;13.328;2023-08-20T08:32:59;24.70;23.40
47576;DHT22;33304;52.456;13.328;2023-08-20T08:35:26;24.80;21.10
47576;DHT22;33304;52.456;13.328;2023-08-20T08:37:53;24.90;19.70
47576;DHT22;33304;52.456;13.328;2023-08-20T08:40:21;24.90;19.70
47576;DHT22;33304;52.456;13.328;2023-08-20T08:42:49;25.00;20.80
47576;DHT22;33304;52.456;13.328;2023-08-20T08:45:18;25.10;19.70
47576;DHT22;33304;52.456;13.328;2023-08-20T08:47:47;25.20;18.90
47576;DHT22;33304;52.456;13.328;2023-08-20T08:50:16;25.40;17.80
47576;DHT22;33304;52.456;13.328;2023-08-20T08:52:45;25.50;17.90
47576;DHT22;33304;52.456;13.328;2023-08-20T08:55:13;25.60;16.60
47576;DHT22;33304;52.456;13.328;2023-08-20T08:57:40;25.70;14.50
47576;DHT22;33304;52.456;13.328;2023-08-20T09:00:08;25.80;15.60
47576;DHT22;33304;52.456;13.328;2023-08-20T09:02:35;26.00;15.40
47576;DHT22;33304;52.456;13.328;2023-08-20T09:05:05;26.00;13.40
47576;DHT22;33304;52.456;13.328;2023-08-20T09:07:33;26.00;13.40
47576;DHT22;33304;52.456;13.328;2023-08-20T09:10:01;26.10;13.40
47576;DHT22;33304;52.456;13.328;2023-08-20T09:12:28;25.80;13.20
47576;DHT22;33304;52.456;13.328;2023-08-20T09:15:00;25.90;13.30
47576;DHT22;33304;52.456;13.328;2023-08-20T09:17:28;26.00;12.80
47576;DHT22;33304;52.456;13.328;2023-08-20T09:19:56;25.90;11.50
47576;DHT22;33304;52.456;13.328;2023-08-20T09:22:24;25.70;11.80
47576;DHT22;33304;52.456;13.328;2023-08-20T09:24:56;25.50;12.90
47576;DHT22;33304;52.456;13.328;2023-08-20T09:27:24;25.70;13.20
47576;DHT22;33304;52.456;13.328;2023-08-20T09:29:53;26.00;11.80
47576;DHT22;33304;52.456;13.328;2023-08-20T09:32:22;26.10;13.50
47576;DHT22;33304;52.456;13.328;2023-08-20T09:34:50;26.10;11.00
47576;DHT22;33304;52.456;13.328;2023-08-20T09:37:19;26.20;12.00
47576;DHT22;33304;52.456;13.328;2023-08-20T09:39:46;26.30;11.50
47576;DHT22;33304;52.456;13.328;2023-08-20T09:42:16;26.30;10.50
47576;DHT22;33304;52.456;13.328;2023-08-20T09:44:44;26.20;9.90
47576;DHT22;33304;52.456;13.328;2023-08-20T09:47:13;26.20;10.30
47576;DHT22;33304;52.456;13.328;2023-08-20T09:49:42;26.30;10.10
47576;DHT22;33304;52.456;13.328;2023-08-20T09:52:10;26.30;11.60
47576;DHT22;33304;52.456;13.328;2023-08-20T09:54:50;26.40;10.70
47576;DHT22;33304;52.456;13.328;2023-08-20T09:57:27;26.50;9.40
47576;DHT22;33304;52.456;13.328;2023-08-20T09:59:55;26.60;9.80
47576;DHT22;33304;52.456;13.328;2023-08-20T10:02:24;26.70;8.10
47576;DHT22;33304;52.456;13.328;2023-08-20T10:04:52;26.80;8.60
47576;DHT22;33304;52.456;13.328;2023-08-20T10:07:20;27.00;11.20
47576;DHT22;33304;52.456;13.328;2023-08-20T10:09:48;27.10;11.80
47576;DHT22;33304;52.456;13.328;2023-08-20T10:12:16;27.10;8.00
47576;DHT22;33304;52.456;13.328;2023-08-20T10:14:45;27.20;10.50
47576;DHT22;33304;52.456;13.328;2023-08-20T10:17:12;27.30;6.90
47576;DHT22;33304;52.456;13.328;2023-08-20T10:19:41;27.40;7.50
47576;DHT22;33304;52.456;13.328;2023-08-20T10:22:08;27.50;7.80
47576;DHT22;33304;52.456;13.328;2023-08-20T10:24:48;27.40;6.30
47576;DHT22;33304;52.456;13.328;2023-08-20T10:27:24;27.40;6.80
47576;DHT22;33304;52.456;13.328;2023-08-20T10:29:54;27.30;5.30
47576;DHT22;33304;52.456;13.328;2023-08-20T10:32:43;27.30;5.20
47576;DHT22;33304;52.456;13.328;2023-08-20T10:35:10;27.40;6.90
47576;DHT22;33304;52.456;13.328;2023-08-20T10:37:38;27.60;6.60
47576;DHT22;33304;52.456;13.328;2023-08-20T10:40:07;27.80;7.20
47576;DHT22;33304;52.456;13.328;2023-08-20T10:42:41;27.90;6.90
47576;DHT22;33304;52.456;13.328;2023-08-20T10:45:10;28.00;7.30
47576;DHT22;33304;52.456;13.328;2023-08-20T10:47:42;28.00;5.10
47576;DHT22;33304;52.456;13.328;2023-08-20T10:50:10;28.00;5.60
47576;DHT22;33304;52.456;13.328;2023-08-20T10:52:41;28.10;4.10
47576;DHT22;33304;52.456;13.328;2023-08-20T10:55:13;28.30;6.20
47576;DHT22;33304;52.456;13.328;2023-08-20T10:57:41;28.30;4.40
47576;DHT22;33304;52.456;13.328;2023-08-20T11:00:15;28.30;3.90
47576;DHT22;33304;52.456;13.328;2023-08-20T11:02:42;28.40;5.30
47576;DHT22;33304;52.456;13.328;2023-08-20T11:05:16;28.60;4.30
47576;DHT22;33304;52.456;13.328;2023-08-20T11:07:45;28.50;6.40
47576;DHT22;33304;52.456;13.328;2023-08-20T11:10:13;28.50;6.00
47576;DHT22;33304;52.456;13.328;2023-08-20T11:12:41;28.60;4.30
47576;DHT22;33304;52.456;13.328;2023-08-20T11:15:10;28.70;3.50
47576;DHT22;33304;52.456;13.328;2023-08-20T11:17:42;28.80;6.00
47576;DHT22;33304;52.456;13.328;2023-08-20T11:20:09;28.90;4.50
47576;DHT22;33304;52.456;13.328;2023-08-20T11:22:38;28.80;2.00
47576;DHT22;33304;52.456;13.328;2023-08-20T11:25:11;28.90;4.50
47576;DHT22;33304;52.456;13.328;2023-08-20T11:27:42;29.00;4.50
47576;DHT22;33304;52.456;13.328;2023-08-20T11:30:11;29.10;3.80
47576;DHT22;33304;52.456;13.328;2023-08-20T11:32:39;29.10;1.00
47576;DHT22;33304;52.456;13.328;2023-08-20T11:35:07;29.20;2.90
47576;DHT22;33304;52.456;13.328;2023-08-20T11:37:34;29.20;2.50
47576;DHT22;33304;52.456;13.328;2023-08-20T11:40:02;29.20;3.70
47576;DHT22;33304;52.456;13.328;2023-08-20T11:42:29;29.40;4.00
47576;DHT22;33304;52.456;13.328;2023-08-20T11:44:56;29.50;2.40
47576;DHT22;33304;52.456;13.328;2023-08-20T11:47:25;29.60;2.20
47576;DHT22;33304;52.456;13.328;2023-08-20T11:50:03;29.70;2.80
47576;DHT22;33304;52.456;13.328;2023-08-20T11:52:31;29.70;2.20
47576;DHT22;33304;52.456;13.328;2023-08-20T11:54:59;29.80;1.00
47576;DHT22;33304;52.456;13.328;2023-08-20T11:57:27;29.90;1.00
47576;DHT22;33304;52.456;13.328;2023-08-20T11:59:55;30.00;1.00
47576;DHT22;33304;52.456;13.328;2023-08-20T12:02:27;30.00;1.30
47576;DHT22;33304;52.456;13.328;2023-08-20T12:04:56;29.90;1.00
47576;DHT22;33304;52.456;13.328;2023-08-20T12:07:25;29.80;1.00
47576;DHT22;33304;52.456;13.328;2023-08-20T12:09:53;29.90;1.00
47576;DHT22;33304;52.456;13.328;2023-08-20T12:12:21;29.90;1.00
47576;DHT22;33304;52.456;13.328;2023-08-20T12:14:48;29.90;1.00
47576;DHT22;33304;52.456;13.328;2023-08-20T12:17:17;30.00;1.00
47576;DHT22;33304;52.456;13.328;2023-08-20T12:19:45;30.10;1.00
47576;DHT22;33304;52.456;13.328;2023-08-20T12:22:12;30.10;1.00
47576;DHT22;33304;52.456;13.328;2023-08-20T12:24:40;30.20;1.00
47576;DHT22;33304;52.456;13.328;2023-08-20T12:27:07;30.40;1.00
47576;DHT22;33304;52.456;13.328;2023-08-20T12:29:34;30.50;1.00
47576;DHT22;33304;52.456;13.328;2023-08-20T12:32:01;30.40;1.00
47576;DHT22;33304;52.456;13.328;2023-08-20T12:34:30;30.70;1.00
47576;DHT22;33304;52.456;13.328;2023-08-20T12:36:58;30.90;1.00
47576;DHT22;33304;52.456;13.328;2023-08-20T12:39:26;31.00;1.00
47576;DHT22;33304;52.456;13.328;2023-08-20T12:41:53;31.00;1.00
47576;DHT22;33304;52.456;13.328;2023-08-20T12:44:20;31.10;1.00
47576;DHT22;33304;52.456;13.328;2023-08-20T12:46:48;31.50;1.00
47576;DHT22;33304;52.456;13.328;2023-08-20T12:49:15;31.60;1.00
47576;DHT22;33304;52.456;13.328;2023-08-20T12:51:42;31.60;1.00
47576;DHT22;33304;52.456;13.328;2023-08-20T12:54:10;32.30;1.00
47576;DHT22;33304;52.456;13.328;2023-08-20T12:56:37;32.90;1.00
47576;DHT22;33304;52.456;13.328;2023-08-20T12:59:04;33.60;1.00
47576;DHT22;33304;52.456;13.328;2023-08-20T13:01:31;34.30;1.00
47576;DHT22;33304;52.456;13.328;2023-08-20T13:03:59;34.90;1.00
47576;DHT22;33304;52.456;13.328;2023-08-20T13:06:27;35.40;1.00
47576;DHT22;33304;52.456;13.328;2023-08-20T13:08:54;35.90;1.00
47576;DHT22;33304;52.456;13.328;2023-08-20T13:11:25;36.20;1.00
47576;DHT22;33304;52.456;13.328;2023-08-20T13:13:54;36.40;1.00
47576;DHT22;33304;52.456;13.328;2023-08-20T13:16:21;36.70;1.00
47576;DHT22;33304;52.456;13.328;2023-08-20T13:18:49;36.70;1.00
47576;DHT22;33304;52.456;13.328;2023-08-20T13:21:16;36.90;1.00
47576;DHT22;33304;52.456;13.328;2023-08-20T13:23:43;36.70;1.00
47576;DHT22;33304;52.456;13.328;2023-08-20T13:26:11;37.40;1.00
47576;DHT22;33304;52.456;13.328;2023-08-20T13:28:39;37.80;1.00
47576;DHT22;33304;52.456;13.328;2023-08-20T13:31:06;37.90;1.00
47576;DHT22;33304;52.456;13.328;2023-08-20T13:33:33;37.90;1.00
47576;DHT22;33304;52.456;13.328;2023-08-20T13:36:01;37.80;1.00
47576;DHT22;33304;52.456;13.328;2023-08-20T13:38:32;38.00;1.00
47576;DHT22;33304;52.456;13.328;2023-08-20T13:41:07;37.50;1.00
47576;DHT22;33304;52.456;13.328;2023-08-20T13:43:40;36.40;1.00
47576;DHT22;33304;52.456;13.328;2023-08-20T13:46:08;35.40;1.00
47576;DHT22;33304;52.456;13.328;2023-08-20T13:48:35;34.70;1.00
47576;DHT22;33304;52.456;13.328;2023-08-20T13:51:05;34.40;1.00
47576;DHT22;33304;52.456;13.328;2023-08-20T13:53:32;34.30;1.00
47576;DHT22;33304;52.456;13.328;2023-08-20T13:56:16;33.90;1.00
47576;DHT22;33304;52.456;13.328;2023-08-20T13:59:05;33.30;1.00
47576;DHT22;33304;52.456;13.328;2023-08-20T14:01:45;32.80;1.00
47576;DHT22;33304;52.456;13.328;2023-08-20T14:04:17;32.30;1.00
47576;DHT22;33304;52.456;13.328;2023-08-20T14:06:55;32.30;1.00
47576;DHT22;33304;52.456;13.328;2023-08-20T14:09:24;32.60;1.00
47576;DHT22;33304;52.456;13.328;2023-08-20T14:11:53;32.60;1.00
47576;DHT22;33304;52.456;13.328;2023-08-20T14:14:28;32.40;1.00
47576;DHT22;33304;52.456;13.328;2023-08-20T14:16:55;32.60;1.00
47576;DHT22;33304;52.456;13.328;2023-08-20T14:19:23;32.40;1.00
47576;DHT22;33304;52.456;13.328;2023-08-20T14:21:50;32.20;1.00
47576;DHT22;33304;52.456;13.328;2023-08-20T14:24:17;31.80;1.00
47576;DHT22;33304;52.456;13.328;2023-08-20T14:26:44;31.70;1.00
47576;DHT22;33304;52.456;13.328;2023-08-20T14:29:11;31.40;1.00
47576;DHT22;33304;52.456;13.328;2023-08-20T14:31:40;31.30;1.00
47576;DHT22;33304;52.456;13.328;2023-08-20T14:34:08;31.30;1.00
47576;DHT22;33304;52.456;13.328;2023-08-20T14:36:35;31.20;1.00
47576;DHT22;33304;52.456;13.328;2023-08-20T14:39:02;31.10;1.00
47576;DHT22;33304;52.456;13.328;2023-08-20T14:41:30;31.00;1.00
47576;DHT22;33304;52.456;13.328;2023-08-20T14:43:57;31.30;1.00
47576;DHT22;33304;52.456;13.328;2023-08-20T14:46:24;32.10;1.00
47576;DHT22;33304;52.456;13.328;2023-08-20T14:48:53;32.50;1.00
47576;DHT22;33304;52.456;13.328;2023-08-20T14:51:21;32.40;1.00
47576;DHT22;33304;52.456;13.328;2023-08-20T14:53:48;32.40;1.00
47576;DHT22;33304;52.456;13.328;2023-08-20T14:56:15;31.90;1.00
47576;DHT22;33304;52.456;13.328;2023-08-20T14:58:42;31.80;1.00
47576;DHT22;33304;52.456;13.328;2023-08-20T15:01:10;31.50;1.00
47576;DHT22;33304;52.456;13.328;2023-08-20T15:03:37;31.50;1.00
47576;DHT22;33304;52.456;13.328;2023-08-20T15:06:06;31.40;1.00
47576;DHT22;33304;52.456;13.328;2023-08-20T15:08:33;31.40;1.00
47576;DHT22;33304;52.456;13.328;2023-08-20T15:11:01;31.30;1.00
47576;DHT22;33304;52.456;13.328;2023-08-20T15:13:29;31.20;1.00
47576;DHT22;33304;52.456;13.328;2023-08-20T15:15:56;30.90;1.00
47576;DHT22;33304;52.456;13.328;2023-08-20T15:18:23;30.70;1.00
47576;DHT22;33304;52.456;13.328;2023-08-20T15:20:54;30.70;1.00
47576;DHT22;33304;52.456;13.328;2023-08-20T15:23:24;30.60;1.00
47576;DHT22;33304;52.456;13.328;2023-08-20T15:25:52;30.60;1.00
47576;DHT22;33304;52.456;13.328;2023-08-20T15:28:20;30.50;1.00